createdAt,value
2023-04-02T00:01:00.987Z,18.6
2023-04-02T00:20:51.359Z,18.5
2023-04-02T00:40:45.967Z,18.5
2023-04-02T01:00:46.142Z,18.4
2023-04-02T01:20:45.687Z,18.4
2023-04-02T01:40:45.945Z,18.3
2023-04-02T02:00:45.991Z,18.3
2023-04-02T02:20:45.763Z,18.2
2023-04-02T02:40:50.152Z,18.1
2023-04-02T03:00:46.383Z,18.1
2023-04-02T03:20:45.845Z,18.1
2023-04-02T03:40:45.977Z,18.1
2023-04-02T04:01:05.680Z,18
2023-04-02T04:20:47.761Z,18
2023-04-02T04:40:46.668Z,18
2023-04-02T05:00:50.210Z,18
2023-04-02T05:21:11.506Z,18
2023-04-02T05:41:11.313Z,17.9
2023-04-02T06:01:12.680Z,18
2023-04-02T06:21:11.651Z,18
2023-04-02T06:41:17.690Z,18.2
2023-04-02T07:01:10.236Z,18.2
2023-04-02T07:21:14.390Z,18.5
2023-04-02T07:41:19.648Z,18.6
2023-04-02T08:01:15.158Z,18.6
2023-04-02T08:21:13.312Z,18.5
2023-04-02T08:41:10.998Z,18.6
2023-04-02T09:01:11.223Z,18.7
2023-04-02T09:21:09.916Z,18.7
2023-04-02T09:41:19.297Z,19.2
2023-04-02T10:01:14.166Z,19.1
2023-04-02T10:21:17.695Z,19.2
2023-04-02T10:41:11.380Z,19.2
2023-04-02T11:01:11.650Z,19.1
2023-04-02T11:21:14.543Z,19.2
2023-04-02T11:41:14.120Z,19.1
2023-04-02T12:01:11.689Z,19.2
2023-04-02T12:21:11.161Z,19.2
2023-04-02T12:41:12.103Z,19.2
2023-04-02T13:01:12.298Z,19.4
2023-04-02T13:21:11.481Z,19.5
2023-04-02T13:41:10.973Z,19.6
2023-04-02T14:01:10.891Z,19.6
2023-04-02T14:21:14.530Z,19.5
2023-04-02T14:41:10.460Z,19.4
2023-04-02T15:01:17.833Z,18.9
2023-04-02T15:21:10.471Z,18.9
2023-04-02T15:41:14.054Z,19.8
2023-04-02T16:01:18.153Z,20
2023-04-02T16:21:12.220Z,20
2023-04-02T16:41:23.885Z,20
2023-04-02T17:01:16.249Z,20
2023-04-02T17:21:42.759Z,20.2
2023-04-02T17:41:58.925Z,20.2
2023-04-02T18:01:30.916Z,20.2
2023-04-02T18:21:12.087Z,20.2
2023-04-02T18:40:48.539Z,20.2
2023-04-02T19:00:49.775Z,20.1
2023-04-02T19:20:50.582Z,20.1
2023-04-02T19:40:47.091Z,20.2
2023-04-02T20:00:49.014Z,20.1
2023-04-02T20:20:48.571Z,20.1
2023-04-02T20:40:47.172Z,20.1
2023-04-02T21:00:49.307Z,19.9
2023-04-02T21:20:50.837Z,19.9
2023-04-02T21:40:45.746Z,19.8
2023-04-02T22:00:58.844Z,19.6
2023-04-02T22:20:46.461Z,19.5
2023-04-02T22:40:53.145Z,19.3
2023-04-02T23:00:51.165Z,19.2
2023-04-02T23:20:55.306Z,19.1
2023-04-02T23:41:03.724Z,19
